createdAt,value
2019-04-22T00:01:17.134Z,13.40
2019-04-22T00:03:50.677Z,13.30
2019-04-22T00:06:32.811Z,13.40
2019-04-22T00:09:11.045Z,13.40
2019-04-22T00:11:35.417Z,13.60
2019-04-22T00:14:05.620Z,13.70
2019-04-22T00:16:47.278Z,13.50
2019-04-22T00:19:19.231Z,13.40
2019-04-22T00:21:40.062Z,13.30
2019-04-22T00:24:12.216Z,13.30
2019-04-22T00:26:48.351Z,13.20
2019-04-22T00:29:34.305Z,13.20
2019-04-22T00:31:40.676Z,13.00
2019-04-22T00:34:14.274Z,13.10
2019-04-22T00:36:41.959Z,13.00
2019-04-22T00:39:22.000Z,13.10
2019-04-22T00:41:49.006Z,13.00
2019-04-22T00:44:21.939Z,12.90
2019-04-22T00:49:59.626Z,12.90
2019-04-22T00:51:55.543Z,12.90
2019-04-22T00:54:17.737Z,12.90
2019-04-22T00:56:48.162Z,12.80
2019-04-22T00:59:22.309Z,12.80
2019-04-22T01:01:52.617Z,12.80
2019-04-22T01:04:31.480Z,12.70
2019-04-22T01:06:54.141Z,12.70
2019-04-22T01:09:19.154Z,12.70
2019-04-22T01:11:55.093Z,12.60
2019-04-22T01:14:21.742Z,12.60
2019-04-22T01:16:57.829Z,12.60
2019-04-22T01:19:23.758Z,12.60
2019-04-22T01:21:49.763Z,12.50
2019-04-22T01:24:22.118Z,12.50
2019-04-22T01:26:47.767Z,12.50
2019-04-22T01:29:12.638Z,12.50
2019-04-22T01:31:36.159Z,12.40
2019-04-22T01:34:16.127Z,12.40
2019-04-22T01:36:55.449Z,12.30
2019-04-22T01:39:28.849Z,12.40
2019-04-22T01:42:14.125Z,12.40
2019-04-22T01:44:33.292Z,12.30
2019-04-22T01:47:08.163Z,12.40
2019-04-22T01:49:38.298Z,12.30
2019-04-22T01:54:37.057Z,12.20
2019-04-22T01:56:58.681Z,12.20
2019-04-22T01:59:28.642Z,12.20
2019-04-22T02:02:03.149Z,12.20
2019-04-22T02:04:36.731Z,12.20
2019-04-22T02:07:01.950Z,12.10
2019-04-22T02:09:50.728Z,12.10
2019-04-22T02:12:10.343Z,12.10
2019-04-22T02:14:39.357Z,12.10
2019-04-22T02:17:09.247Z,12.10
2019-04-22T02:19:37.340Z,12.10
2019-04-22T02:22:04.559Z,12.00
2019-04-22T02:24:39.763Z,11.80
2019-04-22T02:27:10.483Z,11.70
2019-04-22T02:37:13.500Z,11.50
2019-04-22T02:39:45.190Z,11.60
2019-04-22T02:42:13.222Z,11.60
2019-04-22T02:44:42.814Z,11.70
2019-04-22T02:49:37.286Z,11.70
2019-04-22T02:52:17.668Z,11.70
2019-04-22T02:57:24.054Z,11.70
2019-04-22T02:59:54.329Z,11.70
2019-04-22T03:02:12.215Z,11.60
2019-04-22T03:04:47.247Z,11.60
2019-04-22T03:07:12.776Z,11.60
2019-04-22T03:09:46.201Z,11.60
2019-04-22T03:12:18.883Z,11.60
2019-04-22T03:14:46.008Z,11.50
2019-04-22T03:17:15.970Z,11.50
2019-04-22T03:19:50.689Z,11.50
2019-04-22T03:22:31.692Z,11.50
2019-04-22T03:24:46.348Z,11.50
2019-04-22T03:33:05.910Z,11.30
2019-04-22T03:35:31.799Z,11.30
2019-04-22T03:40:16.094Z,11.30
2019-04-22T03:42:47.030Z,11.30
2019-04-22T03:45:19.277Z,11.20
2019-04-22T03:50:24.333Z,11.20
2019-04-22T03:52:38.411Z,11.20
2019-04-22T03:55:09.267Z,11.20
2019-04-22T03:57:53.937Z,11.20
2019-04-22T04:05:22.165Z,11.10
2019-04-22T04:07:48.345Z,11.10
2019-04-22T04:10:23.374Z,11.10
2019-04-22T04:20:20.898Z,11.00
2019-04-22T04:25:29.605Z,11.10
2019-04-22T04:28:10.622Z,11.10
2019-04-22T04:32:55.390Z,11.20
2019-04-22T04:35:25.669Z,11.20
2019-04-22T04:40:20.720Z,11.30
2019-04-22T04:42:47.819Z,11.30
2019-04-22T04:50:20.590Z,11.20
2019-04-22T04:53:01.196Z,11.20
2019-04-22T04:55:26.668Z,11.30
2019-04-22T05:05:16.735Z,11.30
2019-04-22T05:15:21.121Z,11.50
2019-04-22T05:17:52.371Z,11.60
2019-04-22T05:20:21.512Z,11.70
2019-04-22T05:22:44.479Z,11.80
2019-04-22T05:27:48.762Z,11.90
2019-04-22T05:32:46.192Z,11.90
2019-04-22T05:35:18.595Z,11.90
2019-04-22T05:37:50.023Z,12.00
2019-04-22T05:40:20.550Z,12.00
2019-04-22T05:42:46.285Z,12.10
2019-04-22T05:45:17.383Z,12.40
2019-04-22T05:47:50.707Z,12.40
2019-04-22T05:50:13.124Z,12.50
2019-04-22T05:52:57.067Z,12.60
2019-04-22T05:55:33.326Z,12.60
2019-04-22T05:57:59.723Z,12.80
2019-04-22T06:00:37.066Z,12.80
2019-04-22T06:02:59.736Z,12.80
2019-04-22T06:05:24.466Z,12.90
2019-04-22T06:07:53.841Z,12.90
2019-04-22T06:10:34.422Z,13.10
2019-04-22T06:12:56.253Z,13.10
2019-04-22T06:15:31.621Z,13.10
2019-04-22T06:18:09.351Z,13.20
2019-04-22T06:20:38.705Z,13.20
2019-04-22T06:23:04.494Z,13.40
2019-04-22T06:25:51.409Z,13.50
2019-04-22T06:28:17.239Z,13.90
2019-04-22T06:30:34.680Z,13.90
2019-04-22T06:33:12.949Z,13.90
2019-04-22T06:35:45.700Z,14.00
2019-04-22T06:38:24.415Z,14.20
2019-04-22T06:40:39.151Z,14.30
2019-04-22T06:43:11.890Z,14.50
2019-04-22T06:45:35.726Z,14.80
2019-04-22T06:48:07.000Z,14.80
2019-04-22T06:50:41.750Z,15.00
2019-04-22T06:53:14.574Z,15.20
2019-04-22T06:55:41.413Z,15.40
2019-04-22T06:58:10.117Z,15.40
2019-04-22T07:00:41.563Z,15.50
2019-04-22T07:05:59.947Z,15.80
2019-04-22T07:13:21.245Z,15.80
2019-04-22T07:18:18.169Z,15.60
2019-04-22T07:23:24.815Z,15.90
2019-04-22T07:25:47.974Z,15.90
2019-04-22T07:28:15.714Z,15.80
2019-04-22T07:30:44.820Z,15.60
2019-04-22T07:33:31.288Z,15.50
2019-04-22T07:35:54.951Z,15.50
2019-04-22T07:38:25.598Z,15.60
2019-04-22T07:45:49.243Z,15.70
2019-04-22T07:48:26.502Z,15.80
2019-04-22T07:51:00.690Z,15.80
2019-04-22T07:53:18.196Z,15.90
2019-04-22T07:55:52.115Z,15.90
2019-04-22T08:01:09.080Z,16.00
2019-04-22T08:03:47.837Z,16.20
2019-04-22T08:05:58.829Z,16.30
2019-04-22T08:08:26.053Z,16.40
2019-04-22T08:10:57.809Z,16.50
2019-04-22T08:13:25.368Z,16.60
2019-04-22T08:15:54.199Z,16.60
2019-04-22T08:18:28.972Z,16.60
2019-04-22T08:20:56.705Z,16.60
2019-04-22T08:25:54.450Z,16.80
2019-04-22T08:30:56.821Z,17.20
2019-04-22T08:33:29.032Z,17.30
2019-04-22T08:36:06.409Z,17.20
2019-04-22T08:38:50.721Z,17.10
2019-04-22T08:41:21.200Z,17.20
2019-04-22T08:43:56.605Z,17.30
2019-04-22T08:46:22.200Z,17.30
2019-04-22T08:48:52.914Z,17.40
2019-04-22T08:51:22.252Z,17.50
2019-04-22T08:53:57.423Z,17.90
2019-04-22T08:58:50.692Z,18.30
2019-04-22T09:01:18.924Z,18.20
2019-04-22T09:03:48.709Z,18.30
2019-04-22T09:11:25.228Z,18.30
2019-04-22T09:13:52.102Z,18.50
2019-04-22T09:16:21.910Z,18.40
2019-04-22T09:18:48.699Z,18.70
2019-04-22T09:21:37.792Z,18.70
2019-04-22T09:23:56.828Z,18.70
2019-04-22T09:26:27.038Z,18.80
2019-04-22T09:28:50.925Z,18.60
2019-04-22T09:31:19.580Z,18.70
2019-04-22T09:34:03.600Z,18.90
2019-04-22T09:36:27.275Z,18.90
2019-04-22T09:38:52.907Z,18.90
2019-04-22T09:41:25.328Z,18.80
2019-04-22T09:43:53.624Z,18.90
2019-04-22T09:46:23.114Z,18.90
2019-04-22T09:48:51.851Z,18.90
2019-04-22T09:51:18.661Z,19.00
2019-04-22T09:56:24.089Z,19.10
2019-04-22T09:58:52.373Z,19.10
2019-04-22T10:01:27.889Z,19.10
2019-04-22T10:03:56.742Z,19.20
2019-04-22T10:06:27.875Z,19.30
2019-04-22T10:10:00.971Z,19.30
2019-04-22T10:11:27.979Z,19.20
2019-04-22T10:13:53.621Z,19.30
2019-04-22T10:16:25.381Z,19.30
2019-04-22T10:18:52.818Z,19.50
2019-04-22T10:21:35.809Z,19.40
2019-04-22T10:23:53.581Z,19.40
2019-04-22T10:26:27.912Z,19.50
2019-04-22T10:31:30.932Z,19.60
2019-04-22T10:33:44.995Z,19.60
2019-04-22T10:36:01.514Z,19.60
2019-04-22T10:38:30.603Z,19.80
2019-04-22T10:41:00.710Z,19.80
2019-04-22T10:43:29.554Z,19.80
2019-04-22T10:45:58.046Z,19.90
2019-04-22T10:48:26.490Z,20.00
2019-04-22T10:50:54.993Z,19.90
2019-04-22T10:53:23.835Z,20.00
2019-04-22T10:55:54.231Z,20.00
2019-04-22T10:58:23.059Z,20.00
2019-04-22T11:00:54.124Z,20.10
2019-04-22T11:03:22.609Z,19.90
2019-04-22T11:05:53.795Z,20.00
2019-04-22T11:08:31.546Z,20.10
2019-04-22T11:11:09.400Z,20.00
2019-04-22T11:13:24.337Z,20.00
2019-04-22T11:15:53.282Z,20.00
2019-04-22T11:18:23.149Z,20.00
2019-04-22T11:20:51.782Z,20.00
2019-04-22T11:23:20.630Z,20.10
2019-04-22T11:25:50.007Z,20.10
2019-04-22T11:28:19.912Z,20.10
2019-04-22T11:30:50.103Z,20.20
2019-04-22T11:33:20.456Z,20.20
2019-04-22T11:35:50.126Z,20.10
2019-04-22T11:38:19.139Z,20.30
2019-04-22T11:40:53.498Z,20.40
2019-04-22T11:43:19.912Z,20.40
2019-04-22T11:45:49.228Z,20.40
2019-04-22T11:48:19.414Z,20.20
2019-04-22T11:50:48.561Z,20.30
2019-04-22T11:53:17.006Z,20.30
2019-04-22T11:55:46.729Z,20.30
2019-04-22T11:58:15.271Z,20.30
2019-04-22T12:00:45.341Z,20.50
2019-04-22T12:03:14.731Z,20.70
2019-04-22T12:05:43.965Z,20.70
2019-04-22T12:08:15.258Z,20.70
2019-04-22T12:10:50.707Z,20.70
2019-04-22T12:13:14.028Z,20.70
2019-04-22T12:15:42.741Z,20.70
2019-04-22T12:18:13.013Z,20.70
2019-04-22T12:20:43.278Z,20.70
2019-04-22T12:23:12.737Z,20.70
2019-04-22T12:25:48.677Z,20.80
2019-04-22T12:28:13.002Z,20.80
2019-04-22T12:30:41.830Z,20.80
2019-04-22T12:33:11.649Z,20.80
2019-04-22T12:35:40.531Z,20.80
2019-04-22T12:38:11.164Z,20.80
2019-04-22T12:40:47.611Z,20.90
2019-04-22T12:43:12.173Z,21.00
2019-04-22T12:45:40.331Z,21.00
2019-04-22T12:48:10.136Z,21.00
2019-04-22T12:50:42.439Z,21.00
2019-04-22T12:53:13.879Z,20.90
2019-04-22T12:55:41.871Z,20.90
2019-04-22T12:58:11.856Z,21.00
2019-04-22T13:00:40.586Z,21.00
2019-04-22T13:03:09.342Z,21.00
2019-04-22T13:05:40.875Z,21.10
2019-04-22T13:08:09.748Z,21.10
2019-04-22T13:10:51.380Z,21.20
2019-04-22T13:13:13.141Z,21.20
2019-04-22T13:15:41.974Z,21.10
2019-04-22T13:18:19.201Z,21.00
2019-04-22T13:20:40.582Z,21.00
2019-04-22T13:23:11.643Z,21.10
2019-04-22T13:25:40.907Z,21.10
2019-04-22T13:28:11.357Z,21.00
2019-04-22T13:30:40.960Z,20.90
2019-04-22T13:33:10.576Z,20.90
2019-04-22T13:35:39.566Z,21.10
2019-04-22T13:38:09.069Z,21.30
2019-04-22T13:40:40.429Z,21.30
2019-04-22T13:43:09.045Z,21.40
2019-04-22T13:45:38.566Z,21.70
2019-04-22T13:48:26.281Z,21.60
2019-04-22T13:51:08.129Z,21.60
2019-04-22T13:58:17.097Z,21.80
2019-04-22T14:00:38.477Z,22.00
2019-04-22T14:03:12.852Z,22.10
2019-04-22T14:05:44.699Z,22.10
2019-04-22T14:08:14.586Z,22.30
2019-04-22T14:10:44.722Z,22.10
2019-04-22T14:13:13.999Z,22.20
2019-04-22T14:15:43.902Z,22.30
2019-04-22T14:18:12.924Z,22.10
2019-04-22T14:20:42.821Z,22.40
2019-04-22T14:23:12.274Z,22.70
2019-04-22T14:25:42.956Z,22.80
2019-04-22T14:28:16.986Z,22.90
2019-04-22T14:30:42.537Z,22.70
2019-04-22T14:33:12.094Z,22.80
2019-04-22T14:35:41.985Z,22.90
2019-04-22T14:38:10.416Z,22.70
2019-04-22T14:40:40.909Z,22.80
2019-04-22T14:43:29.016Z,22.70
2019-04-22T14:46:10.933Z,22.70
2019-04-22T14:48:40.768Z,22.90
2019-04-22T14:50:55.986Z,22.80
2019-04-22T14:53:31.105Z,22.90
2019-04-22T14:55:40.335Z,22.70
2019-04-22T14:58:11.054Z,22.80
2019-04-22T15:00:40.020Z,22.80
2019-04-22T15:03:09.929Z,22.90
2019-04-22T15:05:40.051Z,22.70
2019-04-22T15:08:09.082Z,22.70
2019-04-22T15:10:38.145Z,22.70
2019-04-22T15:13:07.367Z,22.90
2019-04-22T15:15:43.386Z,22.90
2019-04-22T15:18:21.867Z,22.90
2019-04-22T15:20:54.181Z,22.80
2019-04-22T15:23:22.563Z,23.10
2019-04-22T15:25:52.694Z,23.20
2019-04-22T15:28:21.728Z,23.20
2019-04-22T15:30:51.201Z,23.20
2019-04-22T15:33:21.296Z,23.00
2019-04-22T15:35:51.507Z,23.10
2019-04-22T15:38:22.774Z,23.00
2019-04-22T15:40:50.661Z,22.80
2019-04-22T15:43:20.447Z,22.80
2019-04-22T15:45:50.772Z,22.40
2019-04-22T15:48:21.060Z,22.60
2019-04-22T15:50:50.766Z,23.10
2019-04-22T15:53:20.056Z,23.20
2019-04-22T15:55:48.778Z,23.50
2019-04-22T15:58:17.496Z,23.70
2019-04-22T16:00:58.113Z,24.10
2019-04-22T16:03:18.594Z,24.80
2019-04-22T16:05:48.023Z,25.10
2019-04-22T16:08:17.207Z,26.40
2019-04-22T16:10:46.214Z,27.30
2019-04-22T16:13:20.683Z,27.50
2019-04-22T16:15:44.933Z,27.80
2019-04-22T16:18:15.010Z,26.40
2019-04-22T16:20:43.934Z,26.00
2019-04-22T16:23:15.574Z,25.20
2019-04-22T16:25:55.871Z,23.80
2019-04-22T16:28:25.083Z,23.20
2019-04-22T16:30:55.197Z,22.20
2019-04-22T16:33:23.926Z,22.00
2019-04-22T16:35:53.134Z,21.70
2019-04-22T16:38:22.526Z,21.60
2019-04-22T16:40:52.623Z,21.40
2019-04-22T16:43:22.513Z,21.20
2019-04-22T16:45:51.786Z,21.10
2019-04-22T16:48:21.851Z,20.90
2019-04-22T16:50:52.674Z,20.80
2019-04-22T16:53:23.205Z,20.80
2019-04-22T16:55:52.962Z,20.90
2019-04-22T16:58:23.118Z,20.80
2019-04-22T17:00:52.573Z,20.60
2019-04-22T17:03:22.948Z,20.50
2019-04-22T17:06:09.722Z,20.60
2019-04-22T17:08:39.052Z,20.50
2019-04-22T17:11:07.817Z,20.60
2019-04-22T17:13:38.053Z,20.50
2019-04-22T17:16:07.182Z,20.50
2019-04-22T17:18:37.083Z,20.40
2019-04-22T17:21:08.468Z,20.30
2019-04-22T17:23:37.914Z,20.20
2019-04-22T17:26:08.296Z,20.20
2019-04-22T17:28:37.415Z,20.10
2019-04-22T17:31:06.798Z,20.10
2019-04-22T17:33:37.137Z,20.00
2019-04-22T17:36:07.678Z,20.00
2019-04-22T17:38:46.799Z,20.00
2019-04-22T17:41:20.879Z,19.90
2019-04-22T17:43:59.219Z,19.80
2019-04-22T17:46:30.778Z,19.70
2019-04-22T17:49:12.250Z,19.60
2019-04-22T17:51:38.188Z,19.50
2019-04-22T17:54:07.239Z,19.40
2019-04-22T17:56:37.315Z,19.40
2019-04-22T17:59:10.475Z,19.30
2019-04-22T18:01:41.774Z,19.20
2019-04-22T18:03:53.259Z,19.20
2019-04-22T18:06:46.945Z,19.10
2019-04-22T18:09:04.915Z,19.20
2019-04-22T18:11:56.072Z,19.10
2019-04-22T18:14:31.576Z,19.00
2019-04-22T18:16:43.459Z,18.70
2019-04-22T18:19:09.986Z,18.70
2019-04-22T18:21:35.017Z,18.90
2019-04-22T18:24:02.701Z,19.00
2019-04-22T18:26:44.965Z,18.80
2019-04-22T18:29:14.483Z,18.90
2019-04-22T18:31:32.932Z,19.00
2019-04-22T18:34:08.781Z,19.00
2019-04-22T18:36:38.796Z,18.90
2019-04-22T18:39:20.854Z,19.00
2019-04-22T18:41:40.680Z,18.90
2019-04-22T18:44:19.911Z,18.60
2019-04-22T18:46:42.692Z,18.40
2019-04-22T18:49:11.058Z,18.40
2019-04-22T18:51:46.649Z,18.40
2019-04-22T18:54:36.905Z,18.30
2019-04-22T18:57:07.652Z,18.20
2019-04-22T18:59:27.844Z,18.00
2019-04-22T19:01:52.400Z,17.90
2019-04-22T19:04:27.400Z,17.80
2019-04-22T19:07:19.089Z,17.80
2019-04-22T19:09:53.278Z,17.80
2019-04-22T19:12:34.064Z,17.70
2019-04-22T19:14:51.152Z,17.60
2019-04-22T19:17:28.521Z,17.60
2019-04-22T19:19:51.510Z,17.60
2019-04-22T19:22:17.167Z,17.50
2019-04-22T19:24:44.313Z,17.50
2019-04-22T19:27:15.569Z,17.50
2019-04-22T19:29:55.752Z,17.50
2019-04-22T19:32:13.016Z,17.50
2019-04-22T19:34:47.825Z,17.30
2019-04-22T19:37:17.381Z,17.30
2019-04-22T19:40:00.650Z,17.30
2019-04-22T19:42:28.627Z,17.30
2019-04-22T19:44:53.157Z,17.30
2019-04-22T19:47:38.643Z,17.10
2019-04-22T19:49:58.395Z,17.10
2019-04-22T19:52:24.957Z,17.00
2019-04-22T19:54:52.074Z,17.00
2019-04-22T19:57:17.419Z,16.90
2019-04-22T19:59:51.455Z,16.70
2019-04-22T20:02:27.412Z,16.80
2019-04-22T20:05:08.583Z,16.80
2019-04-22T20:07:48.824Z,16.70
2019-04-22T20:10:17.235Z,16.80
2019-04-22T20:12:42.870Z,16.80
2019-04-22T20:15:17.020Z,16.80
2019-04-22T20:17:57.806Z,16.70
2019-04-22T20:20:22.777Z,16.70
2019-04-22T20:22:44.873Z,16.70
2019-04-22T20:25:05.459Z,16.60
2019-04-22T20:27:49.509Z,16.40
2019-04-22T20:30:24.025Z,16.30
2019-04-22T20:32:47.877Z,16.50
2019-04-22T20:35:24.527Z,16.50
2019-04-22T20:37:52.642Z,16.40
2019-04-22T20:40:23.316Z,16.40
2019-04-22T20:42:55.205Z,16.40
2019-04-22T20:45:23.122Z,16.30
2019-04-22T20:47:42.504Z,16.10
2019-04-22T20:50:23.874Z,16.20
2019-04-22T20:55:16.318Z,16.20
2019-04-22T20:57:53.654Z,16.10
2019-04-22T21:00:18.761Z,16.10
2019-04-22T21:02:46.945Z,16.00
2019-04-22T21:05:19.428Z,16.00
2019-04-22T21:08:01.450Z,16.10
2019-04-22T21:10:22.573Z,15.90
2019-04-22T21:12:50.723Z,15.70
2019-04-22T21:15:33.950Z,15.70
2019-04-22T21:17:57.968Z,15.80
2019-04-22T21:20:34.453Z,15.80
2019-04-22T21:22:58.067Z,15.80
2019-04-22T21:25:23.950Z,15.80
2019-04-22T21:28:04.611Z,15.80
2019-04-22T21:30:32.906Z,15.70
2019-04-22T21:33:00.858Z,13.80
2019-04-22T21:35:47.539Z,15.50
2019-04-22T21:38:06.534Z,15.50
2019-04-22T21:40:37.712Z,15.50
2019-04-22T21:43:08.867Z,15.50
2019-04-22T21:45:27.840Z,15.50
2019-04-22T21:48:16.615Z,15.40
2019-04-22T21:53:18.907Z,15.50
2019-04-22T21:55:43.488Z,15.50
2019-04-22T21:58:31.261Z,15.50
2019-04-22T22:01:14.422Z,15.50
2019-04-22T22:03:44.327Z,15.50
2019-04-22T22:06:08.709Z,15.70
2019-04-22T22:08:45.781Z,16.00
2019-04-22T22:11:15.358Z,16.10
2019-04-22T22:13:44.447Z,16.20
2019-04-22T22:16:10.303Z,16.20
2019-04-22T22:18:34.981Z,16.10
2019-04-22T22:21:34.996Z,16.10
2019-04-22T22:23:42.513Z,16.30
2019-04-22T22:26:09.462Z,16.30
2019-04-22T22:29:06.147Z,16.30
2019-04-22T22:31:26.986Z,16.50
2019-04-22T22:33:48.291Z,16.50
2019-04-22T22:36:13.383Z,16.30
2019-04-22T22:38:41.579Z,16.00
2019-04-22T22:40:56.081Z,15.40
2019-04-22T22:43:32.080Z,15.20
2019-04-22T22:46:09.460Z,14.90
2019-04-22T22:48:44.803Z,14.70
2019-04-22T22:51:20.595Z,14.90
2019-04-22T22:54:03.669Z,14.90
2019-04-22T22:56:16.041Z,14.80
2019-04-22T22:58:49.799Z,14.80
2019-04-22T23:01:21.230Z,14.60
2019-04-22T23:04:02.612Z,14.70
2019-04-22T23:06:24.597Z,14.70
2019-04-22T23:08:51.654Z,14.60
2019-04-22T23:11:27.712Z,14.40
2019-04-22T23:13:49.262Z,14.40
2019-04-22T23:16:10.096Z,14.30
2019-04-22T23:18:28.028Z,14.40
2019-04-22T23:20:57.785Z,14.60
2019-04-22T23:23:50.067Z,14.50
2019-04-22T23:26:37.135Z,14.50
2019-04-22T23:29:03.425Z,13.30
2019-04-22T23:31:31.846Z,14.30
2019-04-22T23:34:07.827Z,14.30
2019-04-22T23:36:55.877Z,14.20
2019-04-22T23:39:33.323Z,14.20
2019-04-22T23:42:06.407Z,14.10
2019-04-22T23:44:32.431Z,14.10
2019-04-22T23:46:59.891Z,14.20
2019-04-22T23:49:28.169Z,14.20
2019-04-22T23:52:10.084Z,14.30
2019-04-22T23:54:44.894Z,14.20
2019-04-22T23:57:04.114Z,14.40
